地図

経路データ

SID SEASON NUMBER BASIN SUBBASIN NAME ISO_TIME NATURE LAT LON WMO_WIND WMO_PRES WMO_AGENCY TRACK_TYPE DIST2LAND LANDFALL IFLAG USA_AGENCY USA_ATCF_ID USA_LAT USA_LON USA_RECORD USA_STATUS USA_WIND USA_PRES USA_SSHS USA_R34_NE USA_R34_SE USA_R34_SW USA_R34_NW USA_R50_NE USA_R50_SE USA_R50_SW USA_R50_NW USA_R64_NE USA_R64_SE USA_R64_SW USA_R64_NW USA_POCI USA_ROCI USA_RMW USA_EYE TOKYO_LAT TOKYO_LON TOKYO_GRADE TOKYO_WIND TOKYO_PRES TOKYO_R50_DIR TOKYO_R50_LONG TOKYO_R50_SHORT TOKYO_R30_DIR TOKYO_R30_LONG TOKYO_R30_SHORT TOKYO_LAND CMA_LAT CMA_LON CMA_CAT CMA_WIND CMA_PRES HKO_LAT HKO_LON HKO_CAT HKO_WIND HKO_PRES NEWDELHI_LAT NEWDELHI_LON NEWDELHI_GRADE NEWDELHI_WIND NEWDELHI_PRES NEWDELHI_CI NEWDELHI_DP NEWDELHI_POCI REUNION_LAT REUNION_LON REUNION_TYPE REUNION_WIND REUNION_PRES REUNION_TNUM REUNION_CI REUNION_RMW REUNION_R34_NE REUNION_R34_SE REUNION_R34_SW REUNION_R34_NW REUNION_R50_NE REUNION_R50_SE REUNION_R50_SW REUNION_R50_NW REUNION_R64_NE REUNION_R64_SE REUNION_R64_SW REUNION_R64_NW BOM_LAT BOM_LON BOM_TYPE BOM_WIND BOM_PRES BOM_TNUM BOM_CI BOM_RMW BOM_R34_NE BOM_R34_SE BOM_R34_SW BOM_R34_NW BOM_R50_NE BOM_R50_SE BOM_R50_SW BOM_R50_NW BOM_R64_NE BOM_R64_SE BOM_R64_SW BOM_R64_NW BOM_ROCI BOM_POCI BOM_EYE BOM_POS_METHOD BOM_PRES_METHOD NADI_LAT NADI_LON NADI_CAT NADI_WIND NADI_PRES WELLINGTON_LAT WELLINGTON_LON WELLINGTON_WIND WELLINGTON_PRES DS824_LAT DS824_LON DS824_STAGE DS824_WIND DS824_PRES TD9636_LAT TD9636_LON TD9636_STAGE TD9636_WIND TD9636_PRES TD9635_LAT TD9635_LON TD9635_WIND TD9635_PRES TD9635_ROCI NEUMANN_LAT NEUMANN_LON NEUMANN_CLASS NEUMANN_WIND NEUMANN_PRES MLC_LAT MLC_LON MLC_CLASS MLC_WIND MLC_PRES USA_GUST BOM_GUST BOM_GUST_PER REUNION_GUST REUNION_GUST_PER USA_SEAHGT USA_SEARAD_NE USA_SEARAD_SE USA_SEARAD_SW USA_SEARAD_NW STORM_SPEED STORM_DIR
1994362S11054 1995 117 SI MM CHRISTELLE 1994-12-27 18:00:00 TS -10.5000 54.0000 25 1004 reunion main 527 493 _____O________ -1 -10.5000 54.0000 2 25 1004 2.00000 2.00000 6 255
1994362S11054 1995 117 SI MM CHRISTELLE 1994-12-27 21:00:00 TS -10.5851 53.6875 main 493 459 _____P________ -1 -10.5851 53.6875 2 25 1004 6 251
1994362S11054 1995 117 SI MM CHRISTELLE 1994-12-28 00:00:00 TS -10.7000 53.4000 25 1004 reunion main 459 435 _____O________ -1 -10.7000 53.4000 2 25 1004 2.00000 2.00000 6 242
1994362S11054 1995 117 SI MM CHRISTELLE 1994-12-28 03:00:00 TS -10.8575 53.1625 main 429 404 _____P________ -1 -10.8575 53.1625 2 25 1004 5 233
1994362S11054 1995 117 SI MM CHRISTELLE 1994-12-28 06:00:00 TS -11.0000 53.0000 25 1004 reunion main 404 389 _____O________ -1 -11.0000 53.0000 2 25 1004 2.00000 2.00000 3 228
1994362S11054 1995 117 SI MM CHRISTELLE 1994-12-28 09:00:00 TS -11.0650 52.9275 main 389 389 _____P________ -1 -11.0650 52.9275 2 25 1004 1 223
1994362S11054 1995 117 SI MM CHRISTELLE 1994-12-28 12:00:00 TS -11.1000 52.9000 25 1004 reunion main 389 389 _____O________ -1 -11.1000 52.9000 2 25 1004 2.00000 2.00000 1 226
1994362S11054 1995 117 SI MM CHRISTELLE 1994-12-28 15:00:00 TS -11.1425 52.8500 main 389 374 _____P________ -1 -11.1425 52.8500 2 25 1004 1 223
1994362S11054 1995 117 SI MM CHRISTELLE 1994-12-28 18:00:00 TS -11.2000 52.8000 25 1004 reunion main 374 359 _____O________ -1 -11.2000 52.8000 2 25 1004 2.00000 2.00000 2 214
1994362S11054 1995 117 SI MM CHRISTELLE 1994-12-28 21:00:00 TS -11.3000 52.7425 main 359 353 _____P________ -1 -11.3000 52.7425 2 25 1004 2 207
1994362S11054 1995 117 SI MM CHRISTELLE 1994-12-29 00:00:00 TS -11.4000 52.7000 25 1004 reunion main 353 353 _____O________ -1 -11.4000 52.7000 2 25 1004 2.00000 2.00000 2 192
1994362S11054 1995 117 SI MM CHRISTELLE 1994-12-29 03:00:00 TS -11.4500 52.7000 main 353 347 _____P________ -1 -11.4500 52.7000 2 25 1004 1 0
1994362S11054 1995 117 SI MM CHRISTELLE 1994-12-29 06:00:00 TS -11.5000 52.7000 25 1004 reunion main 347 342 _____O________ -1 -11.5000 52.7000 2 25 1004 2.00000 2.00000 2 192
1994362S11054 1995 117 SI MM CHRISTELLE 1994-12-29 09:00:00 TS -11.6000 52.6575 main 342 327 _____P________ -1 -11.6000 52.6575 2 25 1003 2 207
1994362S11054 1995 117 SI MM CHRISTELLE 1994-12-29 12:00:00 TS -11.7000 52.6000 25 1002 reunion main 327 327 _____O________ -1 -11.7000 52.6000 2 25 1002 2.00000 2.00000 2 214
1994362S11054 1995 117 SI MM CHRISTELLE 1994-12-29 15:00:00 TS -11.7500 52.5500 main 327 312 _____P________ -1 -11.7500 52.5500 2 25 1002 1 223
1994362S11054 1995 117 SI MM CHRISTELLE 1994-12-29 18:00:00 TS -11.8000 52.5000 25 1002 reunion main 312 308 _____O________ -1 -11.8000 52.5000 2 25 1002 2.00000 2.00000 2 216
1994362S11054 1995 117 SI MM CHRISTELLE 1994-12-29 21:00:00 TS -11.8850 52.4500 main 308 293 _____P________ -1 -11.8850 52.4500 2 25 1002 2 207
1994362S11054 1995 117 SI MM CHRISTELLE 1994-12-30 00:00:00 TS -12.0000 52.4000 25 1002 reunion main 293 289 _____O________ -1 -12.0000 52.4000 2 25 1002 2.00000 2.00000 3 202
1994362S11054 1995 117 SI MM CHRISTELLE 1994-12-30 03:00:00 TS -12.1275 52.3500 main 289 272 _____P________ -1 -12.1275 52.3500 2 25 1002 3 197
1994362S11054 1995 117 SI MM CHRISTELLE 1994-12-30 06:00:00 TS -12.3000 52.3000 25 1002 reunion main 272 266 _____O________ -1 -12.3000 52.3000 2 25 1002 2.00000 2.00000 4 192
1994362S11054 1995 117 SI MM CHRISTELLE 1994-12-30 09:00:00 TS -12.5350 52.2575 main 266 247 _____P________ -1 -12.5350 52.2575 2 25 1002 5 191
1994362S11054 1995 117 SI MM CHRISTELLE 1994-12-30 12:00:00 TS -12.8000 52.2000 25 1002 reunion main 247 231 _____O________ -1 -12.8000 52.2000 2 25 1002 2.00000 2.00000 5 196
1994362S11054 1995 117 SI MM CHRISTELLE 1994-12-30 15:00:00 TS -13.0500 52.1000 main 229 212 _____P________ -1 -13.0500 52.1000 2 25 1002 5 201
1994362S11054 1995 117 SI MM CHRISTELLE 1994-12-30 18:00:00 TS -13.3000 52.0000 25 1002 reunion main 212 208 _____O________ -1 -13.3000 52.0000 2 25 1002 2.00000 2.00000 5 197
1994362S11054 1995 117 SI MM CHRISTELLE 1994-12-30 21:00:00 TS -13.5575 51.9500 main 195 194 _____P________ -1 -13.5575 51.9500 2 25 1002 5 191
1994362S11054 1995 117 SI MM CHRISTELLE 1994-12-31 00:00:00 TS -13.8000 51.9000 25 1002 reunion main 194 183 _____O________ -1 -13.8000 51.9000 2 25 1002 2.00000 2.00000 5 198
1994362S11054 1995 117 SI MM CHRISTELLE 1994-12-31 03:00:00 TS -14.0225 51.8000 main 183 167 _____P________ -1 -14.0225 51.8000 2 25 1002 4 206
1994362S11054 1995 117 SI MM CHRISTELLE 1994-12-31 06:00:00 TS -14.2000 51.7000 25 1002 reunion main 167 154 _____O________ -1 -14.2000 51.7000 2 25 1002 2.00000 2.00000 3 207
1994362S11054 1995 117 SI MM CHRISTELLE 1994-12-31 09:00:00 TS -14.3225 51.6425 main 154 148 _____P________ -1 -14.3225 51.6425 2 25 1002 2 207
1994362S11054 1995 117 SI MM CHRISTELLE 1994-12-31 12:00:00 TS -14.4000 51.6000 25 1002 reunion main 148 141 _____O________ -1 -14.4000 51.6000 2 25 1002 2.00000 2.00000 2 214
1994362S11054 1995 117 SI MM CHRISTELLE 1994-12-31 15:00:00 TS -14.4575 51.5500 main 141 133 _____P________ -1 -14.4575 51.5500 2 25 1002 1 223
1994362S11054 1995 117 SI MM CHRISTELLE 1994-12-31 18:00:00 TS -14.5000 51.5000 25 1002 reunion main 133 133 _____O________ -1 -14.5000 51.5000 2 25 1002 2.00000 2.00000 1 225
1994362S11054 1995 117 SI MM CHRISTELLE 1994-12-31 21:00:00 TS -14.5500 51.4500 main 133 117 _____P________ -1 -14.5500 51.4500 2 25 1002 1 223
1994362S11054 1995 117 SI MM CHRISTELLE 1995-01-01 00:00:00 TS -14.6000 51.4000 25 1002 reunion main 117 117 _____O________ -1 -14.6000 51.4000 2 25 1002 2.00000 2.00000 1 223
1994362S11054 1995 117 SI MM CHRISTELLE 1995-01-01 03:00:00 TS -14.6500 51.3500 main 117 102 _____P________ -1 -14.6500 51.3500 2 25 1002 1 223
1994362S11054 1995 117 SI MM CHRISTELLE 1995-01-01 06:00:00 TS -14.7000 51.3000 25 1002 reunion main 102 93 _____O________ -1 -14.7000 51.3000 2 25 1002 2.00000 2.00000 1 225
1994362S11054 1995 117 SI MM CHRISTELLE 1995-01-01 09:00:00 TS -14.7500 51.2425 main 93 87 _____P________ -1 -14.7500 51.2425 2 25 1002 1 223
1994362S11054 1995 117 SI MM CHRISTELLE 1995-01-01 12:00:00 TS -14.8000 51.2000 25 1002 reunion main 87 82 _____O________ -1 -14.8000 51.2000 2 25 1002 2.00000 2.00000 1 196
1994362S11054 1995 117 SI MM CHRISTELLE 1995-01-01 15:00:00 TS -14.8575 51.2000 main 82 82 _____P________ -1 -14.8575 51.2000 2 25 1002 1 0
1994362S11054 1995 117 SI MM CHRISTELLE 1995-01-01 18:00:00 TS -14.9000 51.2000 25 1002 reunion main 82 82 _____O________ -1 -14.9000 51.2000 2 25 1002 2.00000 2.00000 1 221
1994362S11054 1995 117 SI MM CHRISTELLE 1995-01-01 21:00:00 TS -14.9000 51.1575 main 82 72 _____P________ -1 -14.9000 51.1575 2 25 1002 1 270
1994362S11054 1995 117 SI MM CHRISTELLE 1995-01-02 00:00:00 TS -14.9000 51.1000 25 1002 reunion main 72 72 _____O________ -1 -14.9000 51.1000 2 25 1002 2.00000 2.00000 1 244
1994362S11054 1995 117 SI MM CHRISTELLE 1995-01-02 03:00:00 TS -14.9425 51.0650 main 72 58 _____P________ -1 -14.9425 51.0650 2 25 1002 1 223
1994362S11054 1995 117 SI MM CHRISTELLE 1995-01-02 06:00:00 TS -15.0000 51.0000 25 1002 reunion main 58 44 _____O________ -1 -15.0000 51.0000 2 25 1002 2.00000 2.00000 2 239
1994362S11054 1995 117 SI MM CHRISTELLE 1995-01-02 09:00:00 TS -15.0575 50.8650 main 44 24 _____P________ -1 -15.0575 50.8650 2 27 1000 3 251
1994362S11054 1995 117 SI MM CHRISTELLE 1995-01-02 12:00:00 TS -15.1000 50.7000 30 998 reunion main 24 15 _____O________ -1 -15.1000 50.7000 2 30 998 2.50000 2.50000 3 256
1994362S11054 1995 117 SI MM CHRISTELLE 1995-01-02 15:00:00 TS -15.1300 50.5575 main 15 0 _____P________ -1 -15.1300 50.5575 2 30 998 3 270
1994362S11054 1995 117 SI MM CHRISTELLE 1995-01-02 18:00:00 TS -15.1000 50.4000 30 998 reunion main 0 0 _____O________ -1 -15.1000 50.4000 2 30 998 2.50000 2.50000 4 290
1994362S11054 1995 117 SI MM CHRISTELLE 1995-01-02 21:00:00 TS -14.9950 50.1849 main 0 0 _____P________ -1 -14.9950 50.1849 2 5 308
1994362S11054 1995 117 SI MM CHRISTELLE 1995-01-03 00:00:00 NR -14.8000 50.0000 reunion main 0 0 _____O________ -1 -14.8000 50.0000 8 9.90000 6 333
1994362S11054 1995 117 SI MM CHRISTELLE 1995-01-03 03:00:00 NR -14.4550 49.8975 main 0 0 _____P________ -1 -14.4550 49.8975 8 6 351
1994362S11054 1995 117 SI MM CHRISTELLE 1995-01-03 06:00:00 NR -14.2000 49.9000 reunion main 0 0 _____O________ -1 -14.2000 49.9000 8 9.90000 2 42
1994362S11054 1995 117 SI MM CHRISTELLE 1995-01-03 09:00:00 NR -14.3200 50.0199 main 0 0 _____P________ -1 -14.3200 50.0199 8 4 136
1994362S11054 1995 117 SI MM CHRISTELLE 1995-01-03 12:00:00 NR -14.5000 50.2000 reunion main 10 10 _____O________ -1 -14.5000 50.2000 8 9.90000 4 116
1994362S11054 1995 117 SI MM CHRISTELLE 1995-01-03 15:00:00 NR -14.4750 50.3500 main 24 15 _____P________ -1 -14.4750 50.3500 8 4 56
1994362S11054 1995 117 SI MM CHRISTELLE 1995-01-03 18:00:00 TS -14.3000 50.5000 25 1004 reunion main 43 43 _____O________ -1 -14.3000 50.5000 2 25 1004 2.00000 2.00000 6 29
1994362S11054 1995 117 SI MM CHRISTELLE 1995-01-03 21:00:00 TS -13.9799 50.6275 main 53 53 _____P________ -1 -13.9799 50.6275 2 25 1004 8 23
1994362S11054 1995 117 SI MM CHRISTELLE 1995-01-04 00:00:00 TS -13.6000 50.8000 25 1004 reunion main 78 78 _____O________ -1 -13.6000 50.8000 2 25 1004 2.00000 2.00000 9 31
1994362S11054 1995 117 SI MM CHRISTELLE 1995-01-04 03:00:00 TS -13.2550 51.0776 main 119 119 _____P________ -1 -13.2550 51.0776 2 25 1004 8 44
1994362S11054 1995 117 SI MM CHRISTELLE 1995-01-04 06:00:00 TS -13.0000 51.4000 25 1004 reunion main 158 158 _____O________ -1 -13.0000 51.4000 2 25 1004 2.00000 2.00000 7 60
1994362S11054 1995 117 SI MM CHRISTELLE 1995-01-04 09:00:00 TS -12.9124 51.6848 main 192 192 _____P________ -1 -12.9124 51.6848 2 25 1003 6 80
1994362S11054 1995 117 SI MM CHRISTELLE 1995-01-04 12:00:00 TS -12.9000 52.0000 25 1002 reunion main 223 223 _____O________ -1 -12.9000 52.0000 2 25 1002 2.00000 2.00000 7 84
1994362S11054 1995 117 SI MM CHRISTELLE 1995-01-04 15:00:00 TS -12.8425 52.3850 main 268 268 _____P________ -1 -12.8425 52.3850 2 25 1002 14 59
1994362S11054 1995 117 SI MM CHRISTELLE 1995-01-04 18:00:00 TS -12.2000 53.2000 25 1002 reunion main 369 369 O____O______O_ jtwc_sh SH071995 -11.0000 54.0000 15 -1 -12.8000 52.8000 2 25 1002 2.00000 2.00000 -11.0000 54.0000 TC 15 16 58
1994362S11054 1995 117 SI MM CHRISTELLE 1995-01-04 21:00:00 TS -11.9962 53.7499 main 427 427 P____P______P_ SH071995 -11.2001 54.2999 15 -1 -12.7924 53.2000 2 25 1001 -11.2001 54.2999 TC 15 10 76
1994362S11054 1995 117 SI MM CHRISTELLE 1995-01-05 00:00:00 TS -11.9600 54.2000 25 1000 reunion main 480 480 O____O______O_ jtwc_sh SH071995 -11.4000 54.6000 15 -1 -12.8000 53.6000 2 25 1000 2.00000 2.00000 -11.4000 54.6000 TC 15 8 91
1994362S11054 1995 117 SI MM CHRISTELLE 1995-01-05 03:00:00 TS -12.0049 54.5975 main 522 522 P____P______P_ SH071995 -11.6000 54.9000 17 -1 -12.8149 53.9924 2 27 998 -11.6000 54.9000 TC 17 7 104
1994362S11054 1995 117 SI MM CHRISTELLE 1995-01-05 06:00:00 TS -12.1333 54.9333 30 997 reunion main 551 551 O____O______O_ jtwc_sh SH071995 -11.8000 55.2000 20 -1 -12.8000 54.4000 2 30 997 2.50000 2.50000 -11.8000 55.2000 TC 20 7 108
1994362S11054 1995 117 SI MM CHRISTELLE 1995-01-05 09:00:00 TS -12.2233 55.2934 main 590 590 P____P______P_ SH071995 -11.9925 55.5075 20 -1 -12.6851 54.8652 2 30 996 -11.9925 55.5075 TC 20 7 106
1994362S11054 1995 117 SI MM CHRISTELLE 1995-01-05 12:00:00 TS -12.3333 55.6333 30 995 reunion main 619 619 O____O______O_ jtwc_sh SH071995 -12.2000 55.8000 20 -1 -12.6000 55.3000 2 30 995 2.50000 2.50000 -12.2000 55.8000 TC 20 7 116
1994362S11054 1995 117 SI MM CHRISTELLE 1995-01-05 15:00:00 TS -12.5158 55.9150 main 645 645 P____P______P_ SH071995 -12.4425 56.0575 20 -1 -12.6624 55.6299 2 32 992 -12.4425 56.0575 TC 20 7 128
1994362S11054 1995 117 SI MM CHRISTELLE 1995-01-05 18:00:00 TS -12.7333 56.1667 35 990 reunion main 671 669 O____O______O_ jtwc_sh SH071995 -12.7000 56.3000 20 -1 -12.8000 55.9000 3 35 990 3.00000 3.00000 -12.7000 56.3000 TC 20 7 130
1994362S11054 1995 117 SI MM CHRISTELLE 1995-01-05 21:00:00 TS -12.9325 56.4242 main 686 686 P____P______P_ SH071995 -12.9350 56.5576 22 -1 -12.9275 56.1576 3 35 990 -12.9350 56.5576 TC 22 7 132
1994362S11054 1995 117 SI MM CHRISTELLE 1995-01-06 00:00:00 TS -13.1667 56.6667 35 990 reunion main 705 701 O____O______O_ jtwc_sh SH071995 -13.2000 56.8000 25 -1 -13.1000 56.4000 3 35 990 2.50000 3.00000 -13.2000 56.8000 TC 25 7 139
1994362S11054 1995 117 SI MM CHRISTELLE 1995-01-06 03:00:00 TS -13.4458 56.8884 main 718 706 P____P______P_ SH071995 -13.5200 57.0150 25 -1 -13.2974 56.6352 3 35 990 -13.5200 57.0150 TC 25 8 146
1994362S11054 1995 117 SI MM CHRISTELLE 1995-01-06 06:00:00 TS -13.8000 57.1000 35 990 reunion main 706 660 O____O______O_ jtwc_sh SH071995 -13.9000 57.2000 25 -1 -13.6000 56.9000 3 35 990 2.50000 3.00000 -13.9000 57.2000 TC 25 9 151
1994362S11054 1995 117 SI MM CHRISTELLE 1995-01-06 09:00:00 TS -14.2292 57.3316 main 660 604 P____P______P_ SH071995 -14.3350 57.3650 27 -1 -14.0176 57.2649 3 37 989 -14.3350 57.3650 TC 27 10 156
1994362S11054 1995 117 SI MM CHRISTELLE 1995-01-06 12:00:00 TS -14.7333 57.5333 40 988 reunion main 604 537 O____O______O_ jtwc_sh SH071995 -14.8000 57.5000 30 -1 -14.6000 57.6000 3 40 988 3.00000 3.00000 -14.8000 57.5000 TC 30 11 162
1994362S11054 1995 117 SI MM CHRISTELLE 1995-01-06 15:00:00 TS -15.3075 57.6825 main 537 481 P____P______P_ SH071995 -15.2575 57.6150 32 -1 -15.4074 57.8173 3 42 984 -15.2575 57.6150 TC 32 12 169
1994362S11054 1995 117 SI MM CHRISTELLE 1995-01-06 18:00:00 TS -15.8667 57.7667 45 980 reunion main 470 425 O____O______O_ jtwc_sh SH071995 -15.7000 57.7000 35 0 -16.2000 57.9000 3 45 980 3.50000 3.50000 -15.7000 57.7000 TC 35 10 174
1994362S11054 1995 117 SI MM CHRISTELLE 1995-01-06 21:00:00 TS -16.3208 57.7943 main 425 380 P____P______P_ SH071995 -16.1150 57.7650 37 0 -16.7324 57.8528 3 45 980 -16.1150 57.7650 TC 37 8 178
1994362S11054 1995 117 SI MM CHRISTELLE 1995-01-07 00:00:00 TS -16.7000 57.7667 45 980 reunion main 380 346 O____O______O_ jtwc_sh SH071995 -16.5000 57.8000 40 0 -17.1000 57.7000 3 45 980 3.00000 3.50000 -16.5000 57.8000 TC 40 7 187
1994362S11054 1995 117 SI MM CHRISTELLE 1995-01-07 03:00:00 TS -17.0417 57.7026 main 346 313 P____P______P_ SH071995 -16.8650 57.8001 40 0 -17.3950 57.5075 3 45 980 -16.8650 57.8001 TC 40 7 191
1994362S11054 1995 117 SI MM CHRISTELLE 1995-01-07 06:00:00 TS -17.3333 57.6333 45 980 reunion main 313 279 O____O______O_ jtwc_sh SH071995 -17.2000 57.8000 40 0 -17.6000 57.3000 3 45 980 3.00000 3.50000 -17.2000 57.8000 TC 40 6 189
1994362S11054 1995 117 SI MM CHRISTELLE 1995-01-07 09:00:00 TS -17.6008 57.6116 main 279 257 P____P______P_ SH071995 -17.5150 57.8499 40 0 -17.7725 57.1349 3 42 982 -17.5150 57.8499 TC 40 5 185
1994362S11054 1995 117 SI MM CHRISTELLE 1995-01-07 12:00:00 TS -17.8333 57.6000 40 985 reunion main 257 234 O____O______O_ jtwc_sh SH071995 -17.8000 57.9000 40 0 -17.9000 57.0000 3 40 985 2.50000 3.00000 -17.8000 57.9000 TC 40 4 186
1994362S11054 1995 117 SI MM CHRISTELLE 1995-01-07 15:00:00 TS -18.0408 57.5742 main 234 212 P____P______P_ SH071995 -18.0575 57.9150 40 0 -18.0075 56.8925 3 37 985 -18.0575 57.9150 TC 40 4 189
1994362S11054 1995 117 SI MM CHRISTELLE 1995-01-07 18:00:00 TS -18.2333 57.5333 35 985 reunion main 212 190 O____O______O_ jtwc_sh SH071995 -18.3000 57.9000 40 0 -18.1000 56.8000 3 35 985 2.50000 3.00000 -18.3000 57.9000 TC 40 4 195
1994362S11054 1995 117 SI MM CHRISTELLE 1995-01-07 21:00:00 TS -18.4283 57.4642 main 190 168 P____P______P_ SH071995 -18.5575 57.8501 40 0 -18.1700 56.6925 3 33 987 -18.5575 57.8501 TC 40 4 197
1994362S11054 1995 117 SI MM CHRISTELLE 1995-01-08 00:00:00 TS -18.6333 57.4000 32 990 reunion main 168 145 O____O______O_ jtwc_sh SH071995 -18.8000 57.8000 40 0 -18.3000 56.6000 2 32 990 2.50000 2.50000 -18.8000 57.8000 TC 40 4 191
1994362S11054 1995 117 SI MM CHRISTELLE 1995-01-08 03:00:00 TS -18.8517 57.3733 main 134 112 P____P______P_ SH071995 -19.0075 57.7999 37 0 -18.5400 56.5201 2 32 990 -19.0075 57.7999 TC 37 5 185
1994362S11054 1995 117 SI MM CHRISTELLE 1995-01-08 06:00:00 TS -19.1000 57.3667 32 990 reunion main 112 78 O____O______O_ jtwc_sh SH071995 -19.2000 57.8000 35 0 -18.9000 56.5000 2 32 990 2.50000 2.50000 -19.2000 57.8000 TC 35 5 183
1994362S11054 1995 117 SI MM CHRISTELLE 1995-01-08 09:00:00 TS -19.3950 57.3591 main 78 45 P____P______P_ SH071995 -19.3925 57.7575 35 0 -19.4000 56.5624 2 32 991 -19.3925 57.7575 TC 35 6 179
1994362S11054 1995 117 SI MM CHRISTELLE 1995-01-08 12:00:00 TS -19.7000 57.3667 32 992 reunion main 45 15 O____O______O_ jtwc_sh SH071995 -19.6000 57.7000 35 0 -19.9000 56.7000 2 32 992 2.00000 2.50000 -19.6000 57.7000 TC 35 6 176
1994362S11054 1995 117 SI MM CHRISTELLE 1995-01-08 15:00:00 TS -19.9817 57.3999 main 15 10 P____P______P_ SH071995 -19.8350 57.6500 32 -1 -20.2751 56.8999 2 32 992 -19.8350 57.6500 TC 32 5 172
1994362S11054 1995 117 SI MM CHRISTELLE 1995-01-08 18:00:00 TS -20.2333 57.4333 32 992 reunion main 10 0 O____O______O_ jtwc_sh SH071995 -20.1000 57.6000 30 -1 -20.5000 57.1000 2 32 992 2.50000 2.50000 -20.1000 57.6000 TC 30 4 175
1994362S11054 1995 117 SI MM CHRISTELLE 1995-01-08 21:00:00 TS -20.4258 57.4334 main 0 0 P____P______P_ SH071995 -20.3850 57.5500 30 -1 -20.5074 57.2003 2 32 992 -20.3850 57.5500 TC 30 4 0
1994362S11054 1995 117 SI MM CHRISTELLE 1995-01-09 00:00:00 TS -20.6333 57.4333 32 992 reunion main 11 11 O____O______O_ jtwc_sh SH071995 -20.7000 57.5000 30 -1 -20.5000 57.3000 2 32 992 2.50000 2.50000 -20.7000 57.5000 TC 30 5 176
1994362S11054 1995 117 SI MM CHRISTELLE 1995-01-09 03:00:00 TS -20.9200 57.4741 main 44 44 P____P______P_ SH071995 -21.0350 57.4500 27 -1 -20.6901 57.5222 2 31 992 -21.0350 57.4500 TC 27 6 175
1994362S11054 1995 117 SI MM CHRISTELLE 1995-01-09 06:00:00 TS -21.2667 57.5000 30 992 reunion main 89 89 O____O______O_ jtwc_sh SH071995 -21.4000 57.4000 25 -1 -21.0000 57.7000 2 30 992 2.00000 2.50000 -21.4000 57.4000 TC 25 7 0
1994362S11054 1995 117 SI MM CHRISTELLE 1995-01-09 09:00:00 TS -21.6466 57.4551 main 123 123 P____P______P_ SH071995 -21.7925 57.3574 25 -1 -21.3550 57.6506 2 30 992 -21.7925 57.3574 TC 25 8 186
1994362S11054 1995 117 SI MM CHRISTELLE 1995-01-09 12:00:00 TS -22.0400 57.4200 30 992 reunion main 167 167 O____O______O_ jtwc_sh SH071995 -22.2000 57.3000 25 -1 -21.8000 57.6000 2 30 992 2.00000 2.50000 -22.2000 57.3000 TC 25 8 180
1994362S11054 1995 117 SI MM CHRISTELLE 1995-01-09 15:00:00 TS -22.4575 57.4714 main 220 220 P____P______P_ SH071995 -22.6025 57.2102 22 -1 -22.3124 57.7327 2 30 993 -22.6025 57.2102 TC 22 9 164
1994362S11054 1995 117 SI MM CHRISTELLE 1995-01-09 18:00:00 TS -22.9333 57.7000 30 995 reunion main 265 265 O____O______O_ jtwc_sh SH071995 -23.0000 57.1000 20 -1 -22.9000 58.0000 2 30 995 2.50000 2.50000 -23.0000 57.1000 TC 20 14 143
1994362S11054 1995 117 SI MM CHRISTELLE 1995-01-09 21:00:00 TS -23.5425 58.3624 main 343 343 _____P________ SH071995 -1 -23.5425 58.3624 2 30 995 TC 16 141
1994362S11054 1995 117 SI MM CHRISTELLE 1995-01-10 00:00:00 TS -24.2000 58.8000 30 995 reunion main 428 428 _____O________ -1 -24.2000 58.8000 2 30 995 2.50000 2.50000 15 148
1994362S11054 1995 117 SI MM CHRISTELLE 1995-01-10 03:00:00 TS -24.7844 59.1990 main 504 504 _____P________ -1 -24.7844 59.1990 2 30 995 15 146
1994362S11054 1995 117 SI MM CHRISTELLE 1995-01-10 06:00:00 TS -25.4000 59.7000 30 995 reunion main 584 584 _____O________ -1 -25.4000 59.7000 2 30 995 2.00000 2.50000 17 141
1994362S11054 1995 117 SI MM CHRISTELLE 1995-01-10 09:00:00 TS -26.1121 60.3686 main 683 683 _____P________ -1 -26.1121 60.3686 2 30 996 20 138
1994362S11054 1995 117 SI MM CHRISTELLE 1995-01-10 12:00:00 TS -26.9000 61.2000 30 997 reunion main 798 798 _____O________ -1 -26.9000 61.2000 2 30 997 2.00000 2.50000 23 135
1994362S11054 1995 117 SI MM CHRISTELLE 1995-01-10 15:00:00 TS -27.7272 62.1486 main 919 919 _____P________ -1 -27.7272 62.1486 2 27 998 25 134
1994362S11054 1995 117 SI MM CHRISTELLE 1995-01-10 18:00:00 TS -28.6000 63.2000 25 1000 reunion main 1061 1061 _____O________ -1 -28.6000 63.2000 2 25 1000 2.00000 2.00000 25 133
1994362S11054 1995 117 SI MM CHRISTELLE 1995-01-10 21:00:00 TS -29.4454 64.2302 main 1190 1190 _____P________ -1 -29.4454 64.2302 2 26 133
1994362S11054 1995 117 SI MM CHRISTELLE 1995-01-11 00:00:00 ET -30.4000 65.4000 reunion main 1348 1348 _____O________ -1 -30.4000 65.4000 5 9.90000 31 133
1994362S11054 1995 117 SI MM CHRISTELLE 1995-01-11 03:00:00 ET -31.5474 66.8138 main 1526 1526 _____P________ -1 -31.5474 66.8138 5 35 133
1994362S11054 1995 117 SI MM CHRISTELLE 1995-01-11 06:00:00 ET -32.8000 68.4000 reunion main 1734 _____O________ -1 -32.8000 68.4000 5 9.90000 37 133

IBTrACS Databaseについて

本データベースは、米国NOAAが公開する1842年以降の世界の熱帯低気圧のベストトラックデータアーカイブInternational Best Track Archive for Climate Stewardship (IBTrACS)を、ウェブで閲覧しやすい形式に変換したものです。

最終更新日:2021-10-19